createdAt,value
2022-09-20T00:01:38.416Z,3.65
2022-09-20T00:04:09.502Z,4.40
2022-09-20T00:06:39.707Z,4.03
2022-09-20T00:09:09.747Z,3.75
2022-09-20T00:11:40.433Z,3.60
2022-09-20T00:14:11.053Z,3.67
2022-09-20T00:16:42.161Z,3.63
2022-09-20T00:19:15.264Z,4.38
2022-09-20T00:21:46.267Z,3.78
2022-09-20T00:24:16.382Z,4.22
2022-09-20T00:26:46.442Z,4.40
2022-09-20T00:29:16.567Z,3.05
2022-09-20T00:31:48.391Z,4.15
2022-09-20T00:34:38.442Z,4.03
2022-09-20T00:37:08.632Z,4.60
2022-09-20T00:39:38.611Z,3.92
2022-09-20T00:42:09.713Z,4.30
2022-09-20T00:44:47.412Z,4.40
2022-09-20T00:47:35.749Z,4.07
2022-09-20T00:50:24.383Z,3.90
2022-09-20T00:52:56.096Z,3.92
2022-09-20T00:55:26.161Z,4.85
2022-09-20T00:57:56.312Z,4.53
2022-09-20T01:00:26.344Z,4.32
2022-09-20T01:02:57.440Z,5.40
2022-09-20T01:05:27.530Z,4.50
2022-09-20T01:07:57.590Z,4.85
2022-09-20T01:10:27.647Z,4.32
2022-09-20T01:12:57.722Z,4.43
2022-09-20T01:15:28.956Z,4.28
2022-09-20T01:17:59.522Z,4.03
2022-09-20T01:20:31.241Z,4.30
2022-09-20T01:23:19.388Z,6.07
2022-09-20T01:26:07.601Z,4.32
2022-09-20T01:28:37.696Z,5.30
2022-09-20T01:31:22.728Z,4.50
2022-09-20T01:33:52.723Z,4.97
2022-09-20T01:36:26.433Z,5.13
2022-09-20T01:38:56.462Z,4.47
2022-09-20T01:41:27.954Z,5.00
2022-09-20T01:43:57.981Z,4.80
2022-09-20T01:46:34.499Z,4.60
2022-09-20T01:49:43.001Z,3.67
2022-09-20T01:52:13.053Z,4.75
2022-09-20T01:54:43.088Z,4.22
2022-09-20T01:57:20.925Z,4.53
2022-09-20T02:00:07.998Z,4.60
2022-09-20T02:02:40.702Z,4.28
2022-09-20T02:05:43.049Z,4.15
2022-09-20T02:08:15.845Z,4.88
2022-09-20T02:11:00.946Z,4.55
2022-09-20T02:13:33.697Z,4.07
2022-09-20T02:16:09.990Z,4.90
2022-09-20T02:19:07.444Z,4.32
2022-09-20T02:21:55.913Z,4.82
2022-09-20T02:24:31.439Z,5.38
2022-09-20T02:27:20.903Z,4.85
2022-09-20T02:29:56.636Z,4.53
2022-09-20T02:32:49.420Z,4.93
2022-09-20T02:35:28.362Z,4.93
2022-09-20T02:38:04.263Z,6.05
2022-09-20T02:40:34.397Z,7.47
2022-09-20T02:43:11.975Z,6.00
2022-09-20T02:45:46.773Z,5.82
2022-09-20T02:48:17.162Z,6.28
2022-09-20T02:50:53.674Z,7.93
2022-09-20T02:53:32.496Z,7.38
2022-09-20T02:56:14.305Z,6.93
2022-09-20T02:58:47.397Z,6.25
2022-09-20T03:01:36.147Z,7.10
2022-09-20T03:04:25.141Z,7.63
2022-09-20T03:07:01.306Z,7.78
2022-09-20T03:09:51.315Z,7.50
2022-09-20T03:12:39.785Z,6.50
2022-09-20T03:15:09.873Z,6.55
2022-09-20T03:18:07.458Z,7.20
2022-09-20T03:20:43.557Z,7.53
2022-09-20T03:23:22.669Z,7.53
2022-09-20T03:25:54.319Z,7.78
2022-09-20T03:28:26.352Z,8.50
2022-09-20T03:31:14.811Z,6.22
2022-09-20T03:34:00.746Z,7.00
2022-09-20T03:36:30.805Z,7.70
2022-09-20T03:39:19.052Z,7.35
2022-09-20T03:42:07.382Z,7.05
2022-09-20T03:44:37.881Z,7.43
2022-09-20T03:47:26.622Z,6.60
2022-09-20T03:50:02.550Z,6.80
2022-09-20T03:52:56.944Z,7.32
2022-09-20T03:55:42.197Z,7.63
2022-09-20T03:58:18.110Z,6.72
2022-09-20T04:00:55.994Z,8.10
2022-09-20T04:03:30.485Z,6.47
2022-09-20T04:06:07.544Z,6.28
2022-09-20T04:08:40.291Z,7.57
2022-09-20T04:11:23.095Z,6.10
2022-09-20T04:13:53.950Z,7.95
2022-09-20T04:16:33.480Z,6.70
2022-09-20T04:19:21.937Z,6.78
2022-09-20T04:22:01.555Z,6.90
2022-09-20T04:24:43.253Z,6.05
2022-09-20T04:27:19.559Z,7.43
2022-09-20T04:29:55.381Z,6.90
2022-09-20T04:32:33.668Z,6.35
2022-09-20T04:35:37.280Z,6.45
2022-09-20T04:38:08.009Z,6.70
2022-09-20T04:40:51.171Z,5.50
2022-09-20T04:43:36.563Z,6.28
2022-09-20T04:46:15.636Z,7.72
2022-09-20T04:48:48.955Z,6.47
2022-09-20T04:51:19.291Z,5.22
2022-09-20T04:53:53.678Z,6.57
2022-09-20T04:56:32.921Z,6.40
2022-09-20T04:59:07.211Z,6.07
2022-09-20T05:01:43.601Z,6.00
2022-09-20T05:04:23.925Z,5.70
2022-09-20T05:06:53.915Z,6.15
2022-09-20T05:09:42.407Z,5.55
2022-09-20T05:12:31.119Z,4.97
2022-09-20T05:15:19.730Z,6.50
2022-09-20T05:18:08.244Z,6.40
2022-09-20T05:20:38.222Z,6.75
2022-09-20T05:23:14.937Z,5.95
2022-09-20T05:26:01.198Z,6.55
2022-09-20T05:28:34.254Z,6.05
2022-09-20T05:31:08.041Z,5.70
2022-09-20T05:33:42.017Z,6.07
2022-09-20T05:36:21.002Z,5.95
2022-09-20T05:38:56.372Z,6.40
2022-09-20T05:41:33.750Z,5.15
2022-09-20T05:44:22.645Z,7.47
2022-09-20T05:46:52.749Z,5.68
2022-09-20T05:49:28.943Z,5.55
2022-09-20T05:52:01.460Z,5.82
2022-09-20T05:54:48.779Z,4.78
2022-09-20T05:57:30.749Z,5.93
2022-09-20T06:00:11.331Z,5.63
2022-09-20T06:02:50.592Z,6.20
2022-09-20T06:05:27.692Z,5.70
2022-09-20T06:08:16.558Z,6.55
2022-09-20T06:10:49.877Z,6.57
2022-09-20T06:13:22.860Z,5.68
2022-09-20T06:16:01.285Z,6.35
2022-09-20T06:18:34.565Z,5.22
2022-09-20T06:21:22.847Z,5.05
2022-09-20T06:23:53.532Z,5.60
2022-09-20T06:26:25.118Z,5.78
2022-09-20T06:29:01.564Z,5.40
2022-09-20T06:31:34.160Z,5.35
2022-09-20T06:34:11.591Z,5.15
2022-09-20T06:37:00.633Z,4.75
2022-09-20T06:39:49.273Z,5.88
2022-09-20T06:42:29.712Z,5.03
2022-09-20T06:45:00.251Z,5.05
2022-09-20T06:47:30.909Z,5.43
2022-09-20T06:50:01.330Z,7.07
2022-09-20T06:52:31.886Z,5.53
2022-09-20T06:55:08.799Z,5.25
2022-09-20T06:57:39.378Z,5.97
2022-09-20T07:00:12.951Z,4.43
2022-09-20T07:02:51.304Z,5.32
2022-09-20T07:05:31.262Z,5.05
2022-09-20T07:08:10.681Z,4.85
2022-09-20T07:10:42.786Z,5.68
2022-09-20T07:13:15.092Z,5.18
2022-09-20T07:15:46.662Z,4.75
2022-09-20T07:18:19.234Z,4.80
2022-09-20T07:24:12.328Z,4.78
2022-09-20T07:26:42.719Z,4.95
2022-09-20T07:29:12.784Z,6.47
2022-09-20T07:31:43.157Z,5.45
2022-09-20T07:34:14.087Z,5.75
2022-09-20T07:36:44.261Z,5.68
2022-09-20T07:39:14.297Z,5.22
2022-09-20T07:41:47.721Z,5.68
2022-09-20T07:44:25.980Z,5.93
2022-09-20T07:47:00.609Z,5.68
2022-09-20T07:49:34.219Z,4.88
2022-09-20T07:52:04.416Z,4.68
2022-09-20T07:54:34.453Z,5.43
2022-09-20T07:57:06.870Z,5.18
2022-09-20T07:59:36.897Z,5.22
2022-09-20T08:02:07.162Z,6.28
2022-09-20T08:04:37.348Z,4.80
2022-09-20T08:07:07.428Z,6.20
2022-09-20T08:09:37.502Z,4.95
2022-09-20T08:15:00.635Z,5.35
2022-09-20T08:17:30.934Z,4.82
2022-09-20T08:20:01.922Z,5.70
2022-09-20T08:22:33.690Z,5.03
2022-09-20T08:25:03.752Z,4.97
2022-09-20T08:27:33.822Z,4.50
2022-09-20T08:30:03.924Z,5.63
2022-09-20T08:32:34.395Z,5.30
2022-09-20T08:35:05.168Z,4.80
2022-09-20T08:37:36.076Z,5.78
2022-09-20T08:40:10.283Z,4.50
2022-09-20T08:42:44.442Z,5.93
2022-09-20T08:45:22.659Z,5.28
2022-09-20T08:48:06.780Z,4.85
2022-09-20T08:50:36.834Z,5.30
2022-09-20T08:53:07.133Z,5.65
2022-09-20T08:55:40.726Z,4.30
2022-09-20T08:58:11.945Z,4.38
2022-09-20T09:00:48.651Z,5.18
2022-09-20T09:03:19.047Z,5.38
2022-09-20T09:05:56.079Z,4.32
2022-09-20T09:08:37.578Z,5.18
2022-09-20T09:11:10.721Z,4.90
2022-09-20T09:13:59.159Z,4.47
2022-09-20T09:16:34.978Z,5.28
2022-09-20T09:19:35.381Z,4.47
2022-09-20T09:22:06.302Z,4.82
2022-09-20T09:24:36.338Z,5.53
2022-09-20T09:27:21.650Z,5.25
2022-09-20T09:29:55.450Z,4.30
2022-09-20T09:32:28.666Z,5.03
2022-09-20T09:34:59.217Z,4.35
2022-09-20T09:37:30.214Z,4.78
2022-09-20T09:40:19.369Z,5.28
2022-09-20T09:42:56.412Z,4.43
2022-09-20T09:45:31.571Z,4.25
2022-09-20T09:48:02.625Z,5.00
2022-09-20T09:50:34.723Z,4.45
2022-09-20T09:55:40.526Z,2.95
2022-09-20T09:58:17.221Z,3.00
2022-09-20T10:00:47.873Z,2.80
2022-09-20T10:03:21.044Z,2.38
2022-09-20T10:06:09.502Z,4.13
2022-09-20T10:08:52.406Z,3.25
2022-09-20T10:11:26.513Z,2.95
2022-09-20T10:14:00.510Z,4.32
2022-09-20T10:16:35.376Z,2.92
2022-09-20T10:19:11.670Z,2.40
2022-09-20T10:21:43.120Z,3.10
2022-09-20T10:24:27.452Z,2.60
2022-09-20T10:27:15.634Z,2.38
2022-09-20T10:30:04.334Z,2.92
2022-09-20T10:32:47.435Z,3.67
2022-09-20T10:35:29.626Z,2.38
2022-09-20T10:38:02.372Z,3.53
2022-09-20T10:41:09.095Z,2.75
2022-09-20T10:44:04.197Z,2.83
2022-09-20T10:46:52.664Z,2.67
2022-09-20T10:49:38.966Z,2.50
2022-09-20T10:52:20.951Z,3.30
2022-09-20T10:55:10.233Z,3.20
2022-09-20T10:57:49.299Z,4.00
2022-09-20T11:00:19.287Z,3.33
2022-09-20T11:02:55.350Z,3.78
2022-09-20T11:05:32.266Z,3.00
2022-09-20T11:08:02.339Z,2.85
2022-09-20T11:10:32.310Z,3.17
2022-09-20T11:13:15.281Z,2.25
2022-09-20T11:15:51.023Z,3.88
2022-09-20T11:18:24.986Z,3.08
2022-09-20T11:20:58.676Z,2.63
2022-09-20T11:23:48.333Z,2.53
2022-09-20T11:26:29.526Z,2.53
2022-09-20T11:29:05.596Z,2.17
2022-09-20T11:31:42.569Z,2.67
2022-09-20T11:34:28.179Z,1.73
2022-09-20T11:37:03.815Z,2.38
2022-09-20T11:39:39.374Z,2.30
2022-09-20T11:42:09.416Z,2.97
2022-09-20T11:44:42.749Z,2.15
2022-09-20T11:47:49.730Z,2.38
2022-09-20T11:50:34.221Z,2.92
2022-09-20T11:53:07.331Z,2.17
2022-09-20T11:55:38.038Z,1.98
2022-09-20T11:58:11.613Z,3.03
2022-09-20T12:00:45.967Z,2.05
2022-09-20T12:03:34.711Z,2.53
2022-09-20T12:06:25.603Z,2.33
2022-09-20T12:08:59.898Z,3.38
2022-09-20T12:11:33.034Z,2.55
2022-09-20T12:14:05.247Z,2.33
2022-09-20T12:19:08.217Z,2.40
2022-09-20T12:21:57.184Z,2.53
2022-09-20T12:24:34.560Z,2.08
2022-09-20T12:27:05.826Z,2.28
2022-09-20T12:29:36.082Z,2.43
2022-09-20T12:32:06.610Z,2.45
2022-09-20T12:34:38.326Z,2.28
2022-09-20T12:37:11.501Z,2.50
2022-09-20T12:39:41.710Z,2.15
2022-09-20T12:42:17.442Z,2.20
2022-09-20T12:44:47.407Z,1.98
2022-09-20T12:47:27.741Z,2.10
2022-09-20T12:50:19.584Z,2.55
2022-09-20T12:53:02.353Z,2.65
2022-09-20T12:55:32.841Z,3.10
2022-09-20T12:58:21.068Z,2.30
2022-09-20T13:01:00.458Z,1.98
2022-09-20T13:03:33.070Z,2.53
2022-09-20T13:06:13.210Z,2.13
2022-09-20T13:08:48.180Z,2.33
2022-09-20T13:11:37.517Z,2.92
2022-09-20T13:14:11.310Z,3.17
2022-09-20T13:16:54.702Z,2.45
2022-09-20T13:19:31.068Z,3.00
2022-09-20T13:22:19.152Z,2.63
2022-09-20T13:24:50.360Z,2.40
2022-09-20T13:27:26.355Z,2.80
2022-09-20T13:29:56.806Z,2.75
2022-09-20T13:32:30.338Z,2.67
2022-09-20T13:35:15.071Z,2.60
2022-09-20T13:38:06.136Z,2.80
2022-09-20T13:40:37.031Z,2.58
2022-09-20T13:43:28.890Z,2.03
2022-09-20T13:46:02.687Z,2.80
2022-09-20T13:48:32.793Z,2.90
2022-09-20T13:51:03.585Z,2.90
2022-09-20T13:53:42.102Z,2.60
2022-09-20T13:56:23.831Z,2.80
2022-09-20T13:58:54.146Z,3.20
2022-09-20T14:01:30.124Z,2.95
2022-09-20T14:04:30.072Z,2.55
2022-09-20T14:07:00.837Z,3.65
2022-09-20T14:09:35.369Z,3.20
2022-09-20T14:12:05.808Z,2.90
2022-09-20T14:14:36.849Z,2.70
2022-09-20T14:17:07.717Z,3.05
2022-09-20T14:19:41.956Z,3.00
2022-09-20T14:22:16.608Z,3.58
2022-09-20T14:24:54.071Z,3.72
2022-09-20T14:27:24.149Z,3.28
2022-09-20T14:29:54.644Z,3.60
2022-09-20T14:32:29.238Z,4.20
2022-09-20T14:35:00.173Z,4.57
2022-09-20T14:37:30.249Z,3.67
2022-09-20T14:40:03.484Z,4.30
2022-09-20T14:42:36.490Z,4.28
2022-09-20T14:45:06.802Z,4.53
2022-09-20T14:47:54.921Z,4.60
2022-09-20T14:50:26.025Z,5.18
2022-09-20T14:53:03.893Z,4.43
2022-09-20T14:55:37.577Z,4.05
2022-09-20T14:58:17.194Z,5.43
2022-09-20T15:00:50.421Z,4.30
2022-09-20T15:03:30.315Z,4.50
2022-09-20T15:06:01.746Z,4.13
2022-09-20T15:08:31.813Z,4.28
2022-09-20T15:11:02.846Z,4.78
2022-09-20T15:13:33.119Z,4.72
2022-09-20T15:16:03.228Z,4.28
2022-09-20T15:18:41.477Z,4.90
2022-09-20T15:21:14.690Z,5.10
2022-09-20T15:23:45.065Z,5.32
2022-09-20T15:26:16.300Z,5.18
2022-09-20T15:28:46.615Z,5.18
2022-09-20T15:31:18.441Z,4.82
2022-09-20T15:33:48.782Z,4.78
2022-09-20T15:36:18.847Z,5.13
2022-09-20T15:38:48.890Z,5.35
2022-09-20T15:41:19.560Z,5.35
2022-09-20T15:43:50.554Z,5.60
2022-09-20T15:46:21.563Z,5.68
2022-09-20T15:48:51.668Z,5.30
2022-09-20T15:51:21.731Z,5.65
2022-09-20T15:53:58.618Z,5.25
2022-09-20T15:56:29.337Z,5.13
2022-09-20T15:59:03.319Z,5.40
2022-09-20T16:01:34.082Z,5.57
2022-09-20T16:04:08.099Z,5.10
2022-09-20T16:06:38.501Z,5.20
2022-09-20T16:09:08.919Z,4.72
2022-09-20T16:11:39.955Z,4.97
2022-09-20T16:14:10.261Z,5.20
2022-09-20T16:16:40.939Z,5.28
2022-09-20T16:19:21.765Z,5.28
2022-09-20T16:21:58.173Z,5.00
2022-09-20T16:24:29.583Z,5.47
2022-09-20T16:27:00.102Z,4.90
2022-09-20T16:29:31.218Z,6.40
2022-09-20T16:32:01.605Z,5.57
2022-09-20T16:34:32.508Z,5.10
2022-09-20T16:37:03.335Z,6.03
2022-09-20T16:39:33.427Z,6.05
2022-09-20T16:42:07.100Z,4.93
2022-09-20T16:44:41.247Z,4.70
2022-09-20T16:47:13.057Z,5.22
2022-09-20T16:49:43.440Z,5.13
2022-09-20T16:52:13.590Z,5.38
2022-09-20T16:54:43.599Z,5.63
2022-09-20T16:57:16.470Z,4.82
2022-09-20T16:59:47.738Z,5.13
2022-09-20T17:02:17.731Z,6.15
2022-09-20T17:04:47.807Z,4.18
2022-09-20T17:07:17.846Z,5.03
2022-09-20T17:09:48.032Z,6.28
2022-09-20T17:12:23.089Z,4.45
2022-09-20T17:14:53.083Z,5.00
2022-09-20T17:17:24.001Z,4.70
2022-09-20T17:19:54.023Z,5.07
2022-09-20T17:22:24.035Z,5.53
2022-09-20T17:24:54.032Z,5.90
2022-09-20T17:27:25.187Z,4.90
2022-09-20T17:29:55.171Z,4.65
2022-09-20T17:32:25.289Z,5.75
2022-09-20T17:34:55.364Z,5.63
2022-09-20T17:37:25.443Z,5.28
2022-09-20T17:39:55.565Z,5.80
2022-09-20T17:42:25.577Z,5.13
2022-09-20T17:44:55.579Z,5.70
2022-09-20T17:47:26.364Z,5.63
2022-09-20T17:49:56.449Z,4.38
2022-09-20T17:52:26.476Z,5.72
2022-09-20T17:54:56.580Z,5.53
2022-09-20T17:57:26.606Z,4.47
2022-09-20T17:59:56.774Z,4.78
2022-09-20T18:02:26.935Z,5.80
2022-09-20T18:04:57.114Z,4.75
2022-09-20T18:07:27.245Z,4.53
2022-09-20T18:09:57.837Z,5.00
2022-09-20T18:12:28.255Z,4.90
2022-09-20T18:14:58.473Z,5.50
2022-09-20T18:17:28.446Z,4.85
2022-09-20T18:19:58.477Z,5.32
2022-09-20T18:22:28.507Z,4.53
2022-09-20T18:24:58.504Z,5.18
2022-09-20T18:27:28.766Z,5.40
2022-09-20T18:29:58.823Z,5.50
2022-09-20T18:32:30.925Z,5.20
2022-09-20T18:35:00.949Z,4.35
2022-09-20T18:37:31.884Z,4.68
2022-09-20T18:40:01.994Z,5.25
2022-09-20T18:42:32.174Z,6.00
2022-09-20T18:45:02.281Z,4.53
2022-09-20T18:47:33.146Z,5.00
2022-09-20T18:50:03.178Z,5.18
2022-09-20T18:52:33.172Z,4.60
2022-09-20T18:55:07.376Z,4.72
2022-09-20T18:57:37.541Z,4.10
2022-09-20T19:00:07.905Z,5.18
2022-09-20T19:02:37.907Z,4.78
2022-09-20T19:05:09.582Z,3.90
2022-09-20T19:07:43.371Z,3.90
2022-09-20T19:10:26.292Z,4.20
2022-09-20T19:13:00.117Z,4.97
2022-09-20T19:15:31.136Z,4.47
2022-09-20T19:18:15.254Z,5.47
2022-09-20T19:20:48.917Z,4.68
2022-09-20T19:23:37.759Z,4.55
2022-09-20T19:26:15.988Z,4.78
2022-09-20T19:28:50.147Z,4.68
2022-09-20T19:31:24.387Z,4.53
2022-09-20T19:33:58.501Z,4.47
2022-09-20T19:36:41.645Z,5.10
2022-09-20T19:39:24.307Z,4.57
2022-09-20T19:42:04.809Z,4.07
2022-09-20T19:44:58.017Z,4.55
2022-09-20T19:47:28.223Z,3.90
2022-09-20T19:49:59.521Z,4.72
2022-09-20T19:52:29.838Z,4.10
2022-09-20T19:55:00.211Z,4.70
2022-09-20T19:57:38.505Z,4.93
2022-09-20T20:00:09.615Z,4.28
2022-09-20T20:02:39.974Z,4.65
2022-09-20T20:05:12.847Z,4.40
2022-09-20T20:07:43.035Z,4.03
2022-09-20T20:10:13.143Z,5.25
2022-09-20T20:12:55.212Z,4.07
2022-09-20T20:15:25.236Z,4.28
2022-09-20T20:17:58.621Z,3.75
2022-09-20T20:20:35.067Z,4.00
2022-09-20T20:23:11.251Z,4.55
2022-09-20T20:26:04.169Z,4.65
2022-09-20T20:31:04.107Z,4.20
2022-09-20T20:33:35.332Z,4.25
2022-09-20T20:36:05.686Z,3.92
2022-09-20T20:38:38.215Z,3.97
2022-09-20T20:41:10.031Z,3.50
2022-09-20T20:43:44.149Z,3.42
2022-09-20T20:46:18.764Z,3.65
2022-09-20T20:48:49.689Z,3.50
2022-09-20T20:51:23.545Z,3.72
2022-09-20T20:53:54.480Z,3.75
2022-09-20T20:56:27.028Z,4.43
2022-09-20T20:59:01.781Z,3.55
2022-09-20T21:01:34.561Z,3.40
2022-09-20T21:04:05.815Z,3.28
2022-09-20T21:06:36.542Z,3.15
2022-09-20T21:09:06.921Z,4.38
2022-09-20T21:11:39.012Z,3.55
2022-09-20T21:14:10.194Z,3.78
2022-09-20T21:16:44.074Z,4.45
2022-09-20T21:19:16.724Z,2.60
2022-09-20T21:21:49.169Z,3.60
2022-09-20T21:24:19.494Z,3.92
2022-09-20T21:26:49.695Z,3.88
2022-09-20T21:29:22.617Z,3.53
2022-09-20T21:31:53.416Z,3.78
2022-09-20T21:34:23.512Z,3.50
2022-09-20T21:36:53.579Z,3.25
2022-09-20T21:39:23.719Z,3.30
2022-09-20T21:41:53.825Z,3.17
2022-09-20T21:44:24.137Z,3.53
2022-09-20T21:46:54.157Z,3.05
2022-09-20T21:49:24.619Z,3.17
2022-09-20T21:51:55.225Z,3.50
2022-09-20T21:54:25.343Z,3.15
2022-09-20T21:56:57.141Z,2.70
2022-09-20T21:59:28.071Z,2.53
2022-09-20T22:01:59.893Z,3.03
2022-09-20T22:04:30.736Z,2.85
2022-09-20T22:07:01.209Z,2.97
2022-09-20T22:09:31.410Z,2.83
2022-09-20T22:12:02.025Z,3.03
2022-09-20T22:14:32.195Z,3.35
2022-09-20T22:17:02.263Z,2.78
2022-09-20T22:19:33.271Z,2.45
2022-09-20T22:22:04.548Z,2.58
2022-09-20T22:24:34.975Z,2.53
2022-09-20T22:27:05.292Z,3.33
2022-09-20T22:29:35.387Z,2.33
2022-09-20T22:32:05.966Z,2.28
2022-09-20T22:34:36.816Z,2.50
2022-09-20T22:37:07.228Z,2.40
2022-09-20T22:39:37.889Z,2.20
2022-09-20T22:42:07.924Z,2.72
2022-09-20T22:44:38.004Z,2.40
2022-09-20T22:47:08.118Z,2.80
2022-09-20T22:49:38.155Z,3.10
2022-09-20T22:52:08.660Z,2.38
2022-09-20T22:54:38.864Z,2.40
2022-09-20T22:57:08.953Z,2.33
2022-09-20T22:59:39.025Z,2.45
2022-09-20T23:02:09.072Z,3.10
2022-09-20T23:04:39.662Z,2.30
2022-09-20T23:07:10.096Z,2.33
2022-09-20T23:09:40.229Z,2.22
2022-09-20T23:12:10.410Z,2.22
2022-09-20T23:14:40.531Z,2.58
2022-09-20T23:17:10.570Z,2.00
2022-09-20T23:19:40.635Z,2.13
2022-09-20T23:22:10.688Z,2.55
2022-09-20T23:24:40.770Z,2.00
2022-09-20T23:27:11.985Z,1.77
2022-09-20T23:29:42.110Z,2.35
2022-09-20T23:32:12.292Z,1.75
2022-09-20T23:34:42.354Z,2.20
2022-09-20T23:37:12.661Z,1.92
2022-09-20T23:39:42.993Z,1.75
2022-09-20T23:42:13.016Z,2.10
2022-09-20T23:44:43.102Z,2.58
2022-09-20T23:47:13.154Z,2.05
2022-09-20T23:49:43.259Z,1.95
2022-09-20T23:52:13.323Z,2.47
2022-09-20T23:54:43.510Z,1.75
2022-09-20T23:57:13.629Z,2.40
2022-09-20T23:59:43.817Z,1.90
